sensor_id;sensor_type;location;lat;lon;timestamp;temperature;humidity
17607;DHT22;8922;52.240;20.980;2022-08-03T00:01:04;21.20;99.90
17607;DHT22;8922;52.240;20.980;2022-08-03T00:03:31;21.20;99.90
17607;DHT22;8922;52.240;20.980;2022-08-03T00:05:58;21.10;99.90
17607;DHT22;8922;52.240;20.980;2022-08-03T00:08:25;21.10;99.90
17607;DHT22;8922;52.240;20.980;2022-08-03T00:10:52;21.10;99.90
17607;DHT22;8922;52.240;20.980;2022-08-03T00:13:19;21.00;99.90
17607;DHT22;8922;52.240;20.980;2022-08-03T00:15:45;21.00;99.90
17607;DHT22;8922;52.240;20.980;2022-08-03T00:18:13;21.00;99.90
17607;DHT22;8922;52.240;20.980;2022-08-03T00:20:40;21.00;99.90
17607;DHT22;8922;52.240;20.980;2022-08-03T00:23:07;21.00;99.90
17607;DHT22;8922;52.240;20.980;2022-08-03T00:25:34;20.90;99.90
17607;DHT22;8922;52.240;20.980;2022-08-03T00:28:01;20.90;99.90
17607;DHT22;8922;52.240;20.980;2022-08-03T00:30:28;20.90;99.90
17607;DHT22;8922;52.240;20.980;2022-08-03T00:32:55;20.90;99.90
17607;DHT22;8922;52.240;20.980;2022-08-03T00:35:23;20.90;99.90
17607;DHT22;8922;52.240;20.980;2022-08-03T00:37:50;20.90;99.90
17607;DHT22;8922;52.240;20.980;2022-08-03T00:40:18;20.80;99.90
17607;DHT22;8922;52.240;20.980;2022-08-03T00:42:46;20.80;99.90
17607;DHT22;8922;52.240;20.980;2022-08-03T00:45:13;20.80;99.90
17607;DHT22;8922;52.240;20.980;2022-08-03T00:47:40;20.80;99.90
17607;DHT22;8922;52.240;20.980;2022-08-03T00:50:07;20.80;99.90
17607;DHT22;8922;52.240;20.980;2022-08-03T00:52:35;20.80;99.90
17607;DHT22;8922;52.240;20.980;2022-08-03T00:55:03;20.70;99.90
17607;DHT22;8922;52.240;20.980;2022-08-03T00:57:31;20.70;99.90
17607;DHT22;8922;52.240;20.980;2022-08-03T00:59:58;20.70;99.90
17607;DHT22;8922;52.240;20.980;2022-08-03T01:02:25;20.70;99.90
17607;DHT22;8922;52.240;20.980;2022-08-03T01:04:52;20.70;99.90
17607;DHT22;8922;52.240;20.980;2022-08-03T01:07:26;20.60;99.90
17607;DHT22;8922;52.240;20.980;2022-08-03T01:10:01;20.70;99.90
17607;DHT22;8922;52.240;20.980;2022-08-03T01:12:33;20.60;99.90
17607;DHT22;8922;52.240;20.980;2022-08-03T01:15:09;20.60;99.90
17607;DHT22;8922;52.240;20.980;2022-08-03T01:17:42;20.60;99.90
17607;DHT22;8922;52.240;20.980;2022-08-03T01:20:12;20.50;99.90
17607;DHT22;8922;52.240;20.980;2022-08-03T01:22:51;20.50;99.90
17607;DHT22;8922;52.240;20.980;2022-08-03T01:25:45;20.50;99.90
17607;DHT22;8922;52.240;20.980;2022-08-03T01:28:32;20.50;99.90
17607;DHT22;8922;52.240;20.980;2022-08-03T01:31:07;20.50;99.90
17607;DHT22;8922;52.240;20.980;2022-08-03T01:33:40;20.40;99.90
17607;DHT22;8922;52.240;20.980;2022-08-03T01:36:11;20.40;99.90
17607;DHT22;8922;52.240;20.980;2022-08-03T01:38:42;20.40;99.90
17607;DHT22;8922;52.240;20.980;2022-08-03T01:41:11;20.40;99.90
17607;DHT22;8922;52.240;20.980;2022-08-03T01:43:41;20.40;99.90
17607;DHT22;8922;52.240;20.980;2022-08-03T01:46:10;20.30;99.90
17607;DHT22;8922;52.240;20.980;2022-08-03T01:48:39;20.30;99.90
17607;DHT22;8922;52.240;20.980;2022-08-03T01:51:08;20.20;99.90
17607;DHT22;8922;52.240;20.980;2022-08-03T01:53:36;20.20;99.90
17607;DHT22;8922;52.240;20.980;2022-08-03T01:56:05;20.20;99.90
17607;DHT22;8922;52.240;20.980;2022-08-03T01:58:33;20.20;99.90
17607;DHT22;8922;52.240;20.980;2022-08-03T02:01:00;20.20;99.90
17607;DHT22;8922;52.240;20.980;2022-08-03T02:03:30;20.20;99.90
17607;DHT22;8922;52.240;20.980;2022-08-03T02:05:59;20.10;99.90
17607;DHT22;8922;52.240;20.980;2022-08-03T02:08:28;20.10;99.90
17607;DHT22;8922;52.240;20.980;2022-08-03T02:10:56;20.10;99.90
17607;DHT22;8922;52.240;20.980;2022-08-03T02:13:25;20.10;99.90
17607;DHT22;8922;52.240;20.980;2022-08-03T02:15:54;20.10;99.90
17607;DHT22;8922;52.240;20.980;2022-08-03T02:18:23;20.10;99.90
17607;DHT22;8922;52.240;20.980;2022-08-03T02:20:52;20.00;99.90
17607;DHT22;8922;52.240;20.980;2022-08-03T02:23:20;20.00;99.90
17607;DHT22;8922;52.240;20.980;2022-08-03T02:25:49;20.00;99.90
17607;DHT22;8922;52.240;20.980;2022-08-03T02:28:19;20.00;99.90
17607;DHT22;8922;52.240;20.980;2022-08-03T02:30:52;20.00;99.90
17607;DHT22;8922;52.240;20.980;2022-08-03T02:33:24;20.00;99.90
17607;DHT22;8922;52.240;20.980;2022-08-03T02:35:55;20.00;99.90
17607;DHT22;8922;52.240;20.980;2022-08-03T02:38:27;20.00;99.90
17607;DHT22;8922;52.240;20.980;2022-08-03T02:40:54;19.90;99.90
17607;DHT22;8922;52.240;20.980;2022-08-03T02:43:23;20.00;99.90
17607;DHT22;8922;52.240;20.980;2022-08-03T02:45:52;20.00;99.90
17607;DHT22;8922;52.240;20.980;2022-08-03T02:48:22;19.90;99.90
17607;DHT22;8922;52.240;20.980;2022-08-03T02:50:53;19.90;99.90
17607;DHT22;8922;52.240;20.980;2022-08-03T02:53:21;19.90;99.90
17607;DHT22;8922;52.240;20.980;2022-08-03T02:55:49;19.90;99.90
17607;DHT22;8922;52.240;20.980;2022-08-03T02:58:18;20.00;99.90
17607;DHT22;8922;52.240;20.980;2022-08-03T03:00:46;19.90;99.90
17607;DHT22;8922;52.240;20.980;2022-08-03T03:03:14;19.90;99.90
17607;DHT22;8922;52.240;20.980;2022-08-03T03:05:41;20.00;99.90
17607;DHT22;8922;52.240;20.980;2022-08-03T03:08:11;19.90;99.90
17607;DHT22;8922;52.240;20.980;2022-08-03T03:10:39;20.00;99.90
17607;DHT22;8922;52.240;20.980;2022-08-03T03:13:06;20.00;99.90
17607;DHT22;8922;52.240;20.980;2022-08-03T03:15:34;20.00;99.90
17607;DHT22;8922;52.240;20.980;2022-08-03T03:18:03;20.00;99.90
17607;DHT22;8922;52.240;20.980;2022-08-03T03:20:31;20.00;99.90
17607;DHT22;8922;52.240;20.980;2022-08-03T03:23:00;20.00;99.90
17607;DHT22;8922;52.240;20.980;2022-08-03T03:25:30;20.00;99.90
17607;DHT22;8922;52.240;20.980;2022-08-03T03:27:57;20.10;99.90
17607;DHT22;8922;52.240;20.980;2022-08-03T03:30:25;20.10;99.90
17607;DHT22;8922;52.240;20.980;2022-08-03T03:32:52;20.10;99.90
17607;DHT22;8922;52.240;20.980;2022-08-03T03:35:19;20.10;99.90
17607;DHT22;8922;52.240;20.980;2022-08-03T03:37:45;20.20;99.90
17607;DHT22;8922;52.240;20.980;2022-08-03T03:40:12;20.20;99.90
17607;DHT22;8922;52.240;20.980;2022-08-03T03:42:41;20.20;99.90
17607;DHT22;8922;52.240;20.980;2022-08-03T03:45:09;20.30;99.90
17607;DHT22;8922;52.240;20.980;2022-08-03T03:47:36;20.30;99.90
17607;DHT22;8922;52.240;20.980;2022-08-03T03:50:04;20.40;99.90
17607;DHT22;8922;52.240;20.980;2022-08-03T03:52:32;20.40;99.90
17607;DHT22;8922;52.240;20.980;2022-08-03T03:54:59;20.40;99.90
17607;DHT22;8922;52.240;20.980;2022-08-03T03:57:26;20.50;99.90
17607;DHT22;8922;52.240;20.980;2022-08-03T03:59:55;20.50;99.90
17607;DHT22;8922;52.240;20.980;2022-08-03T04:02:22;20.60;99.90
17607;DHT22;8922;52.240;20.980;2022-08-03T04:04:49;20.60;99.90
17607;DHT22;8922;52.240;20.980;2022-08-03T04:07:39;20.70;99.90
17607;DHT22;8922;52.240;20.980;2022-08-03T04:10:28;20.70;99.90
17607;DHT22;8922;52.240;20.980;2022-08-03T04:13:15;20.90;99.90
17607;DHT22;8922;52.240;20.980;2022-08-03T04:15:44;20.90;99.90
17607;DHT22;8922;52.240;20.980;2022-08-03T04:18:13;21.00;99.90
17607;DHT22;8922;52.240;20.980;2022-08-03T04:20:44;21.10;99.90
17607;DHT22;8922;52.240;20.980;2022-08-03T04:23:12;21.10;99.90
17607;DHT22;8922;52.240;20.980;2022-08-03T04:25:39;21.20;99.90
17607;DHT22;8922;52.240;20.980;2022-08-03T04:28:07;21.20;99.90
17607;DHT22;8922;52.240;20.980;2022-08-03T04:30:36;21.20;99.90
17607;DHT22;8922;52.240;20.980;2022-08-03T04:33:06;21.40;99.90
17607;DHT22;8922;52.240;20.980;2022-08-03T04:35:34;21.40;99.90
17607;DHT22;8922;52.240;20.980;2022-08-03T04:38:02;21.60;99.90
17607;DHT22;8922;52.240;20.980;2022-08-03T04:40:33;21.60;99.90
17607;DHT22;8922;52.240;20.980;2022-08-03T04:43:01;21.70;99.90
17607;DHT22;8922;52.240;20.980;2022-08-03T04:45:29;21.80;99.90
17607;DHT22;8922;52.240;20.980;2022-08-03T04:47:57;21.90;99.90
17607;DHT22;8922;52.240;20.980;2022-08-03T04:50:26;22.00;99.90
17607;DHT22;8922;52.240;20.980;2022-08-03T04:52:53;22.00;99.90
17607;DHT22;8922;52.240;20.980;2022-08-03T04:55:27;21.90;99.90
17607;DHT22;8922;52.240;20.980;2022-08-03T04:57:54;22.00;99.90
17607;DHT22;8922;52.240;20.980;2022-08-03T05:00:21;22.00;99.90
17607;DHT22;8922;52.240;20.980;2022-08-03T05:02:48;22.00;99.90
17607;DHT22;8922;52.240;20.980;2022-08-03T05:05:15;22.00;99.90
17607;DHT22;8922;52.240;20.980;2022-08-03T05:07:43;22.00;99.90
17607;DHT22;8922;52.240;20.980;2022-08-03T05:10:11;22.00;99.90
17607;DHT22;8922;52.240;20.980;2022-08-03T05:12:38;22.10;99.90
17607;DHT22;8922;52.240;20.980;2022-08-03T05:15:06;22.10;99.90
17607;DHT22;8922;52.240;20.980;2022-08-03T05:17:33;22.10;99.90
17607;DHT22;8922;52.240;20.980;2022-08-03T05:20:00;22.10;99.90
17607;DHT22;8922;52.240;20.980;2022-08-03T05:22:28;22.10;99.90
17607;DHT22;8922;52.240;20.980;2022-08-03T05:24:56;22.20;99.90
17607;DHT22;8922;52.240;20.980;2022-08-03T05:27:23;22.30;99.90
17607;DHT22;8922;52.240;20.980;2022-08-03T05:29:50;22.30;99.90
17607;DHT22;8922;52.240;20.980;2022-08-03T05:32:18;22.30;99.90
17607;DHT22;8922;52.240;20.980;2022-08-03T05:34:45;22.40;99.90
17607;DHT22;8922;52.240;20.980;2022-08-03T05:37:12;22.50;99.90
17607;DHT22;8922;52.240;20.980;2022-08-03T05:39:39;22.60;99.90
17607;DHT22;8922;52.240;20.980;2022-08-03T05:42:07;22.80;99.90
17607;DHT22;8922;52.240;20.980;2022-08-03T05:44:35;22.80;99.90
17607;DHT22;8922;52.240;20.980;2022-08-03T05:47:03;22.80;99.90
17607;DHT22;8922;52.240;20.980;2022-08-03T05:49:30;22.90;99.90
17607;DHT22;8922;52.240;20.980;2022-08-03T05:51:56;22.90;99.90
17607;DHT22;8922;52.240;20.980;2022-08-03T05:54:23;22.90;99.90
17607;DHT22;8922;52.240;20.980;2022-08-03T05:56:50;22.90;99.90
17607;DHT22;8922;52.240;20.980;2022-08-03T05:59:18;22.80;99.90
17607;DHT22;8922;52.240;20.980;2022-08-03T06:01:46;22.80;99.90
17607;DHT22;8922;52.240;20.980;2022-08-03T06:04:13;22.80;99.90
17607;DHT22;8922;52.240;20.980;2022-08-03T06:06:39;22.80;99.90
17607;DHT22;8922;52.240;20.980;2022-08-03T06:09:06;22.70;99.90
17607;DHT22;8922;52.240;20.980;2022-08-03T06:11:35;22.70;99.90
17607;DHT22;8922;52.240;20.980;2022-08-03T06:14:02;22.70;99.90
17607;DHT22;8922;52.240;20.980;2022-08-03T06:16:30;22.70;99.90
17607;DHT22;8922;52.240;20.980;2022-08-03T06:18:58;22.80;99.90
17607;DHT22;8922;52.240;20.980;2022-08-03T06:21:24;22.80;99.90
17607;DHT22;8922;52.240;20.980;2022-08-03T06:23:51;22.80;99.90
17607;DHT22;8922;52.240;20.980;2022-08-03T06:26:18;22.80;99.90
17607;DHT22;8922;52.240;20.980;2022-08-03T06:28:45;22.90;99.90
17607;DHT22;8922;52.240;20.980;2022-08-03T06:31:11;22.90;99.90
17607;DHT22;8922;52.240;20.980;2022-08-03T06:33:39;22.90;99.90
17607;DHT22;8922;52.240;20.980;2022-08-03T06:36:06;22.90;99.90
17607;DHT22;8922;52.240;20.980;2022-08-03T06:38:33;22.90;99.90
17607;DHT22;8922;52.240;20.980;2022-08-03T06:41:00;22.90;99.90
17607;DHT22;8922;52.240;20.980;2022-08-03T06:43:27;22.90;99.90
17607;DHT22;8922;52.240;20.980;2022-08-03T06:45:53;22.90;99.90
17607;DHT22;8922;52.240;20.980;2022-08-03T06:48:21;22.90;99.90
17607;DHT22;8922;52.240;20.980;2022-08-03T06:50:49;22.90;99.90
17607;DHT22;8922;52.240;20.980;2022-08-03T06:53:15;22.90;99.90
17607;DHT22;8922;52.240;20.980;2022-08-03T06:55:42;22.90;99.90
17607;DHT22;8922;52.240;20.980;2022-08-03T06:58:09;22.90;99.90
17607;DHT22;8922;52.240;20.980;2022-08-03T07:00:36;23.00;99.90
17607;DHT22;8922;52.240;20.980;2022-08-03T07:03:03;23.10;99.90
17607;DHT22;8922;52.240;20.980;2022-08-03T07:05:30;23.20;99.90
17607;DHT22;8922;52.240;20.980;2022-08-03T07:07:59;23.30;99.90
17607;DHT22;8922;52.240;20.980;2022-08-03T07:10:27;23.50;99.90
17607;DHT22;8922;52.240;20.980;2022-08-03T07:12:54;23.60;99.90
17607;DHT22;8922;52.240;20.980;2022-08-03T07:15:21;23.80;99.90
17607;DHT22;8922;52.240;20.980;2022-08-03T07:17:48;24.00;99.90
17607;DHT22;8922;52.240;20.980;2022-08-03T07:20:15;24.10;99.90
17607;DHT22;8922;52.240;20.980;2022-08-03T07:22:42;24.30;99.90
17607;DHT22;8922;52.240;20.980;2022-08-03T07:25:10;24.60;99.90
17607;DHT22;8922;52.240;20.980;2022-08-03T07:27:37;24.70;99.90
17607;DHT22;8922;52.240;20.980;2022-08-03T07:30:06;24.90;99.90
17607;DHT22;8922;52.240;20.980;2022-08-03T07:32:33;25.10;99.90
17607;DHT22;8922;52.240;20.980;2022-08-03T07:35:00;25.30;99.90
17607;DHT22;8922;52.240;20.980;2022-08-03T07:37:28;25.50;99.90
17607;DHT22;8922;52.240;20.980;2022-08-03T07:39:56;25.60;99.90
17607;DHT22;8922;52.240;20.980;2022-08-03T07:42:24;25.70;99.90
17607;DHT22;8922;52.240;20.980;2022-08-03T07:44:51;25.80;99.90
17607;DHT22;8922;52.240;20.980;2022-08-03T07:47:18;25.90;99.90
17607;DHT22;8922;52.240;20.980;2022-08-03T07:49:45;26.00;99.90
17607;DHT22;8922;52.240;20.980;2022-08-03T07:52:11;26.10;99.90
17607;DHT22;8922;52.240;20.980;2022-08-03T07:54:56;26.10;99.90
17607;DHT22;8922;52.240;20.980;2022-08-03T07:57:24;26.30;99.90
17607;DHT22;8922;52.240;20.980;2022-08-03T07:59:50;26.50;99.90
17607;DHT22;8922;52.240;20.980;2022-08-03T08:02:17;26.60;99.90
17607;DHT22;8922;52.240;20.980;2022-08-03T08:04:44;26.80;99.90
17607;DHT22;8922;52.240;20.980;2022-08-03T08:07:11;27.00;99.90
17607;DHT22;8922;52.240;20.980;2022-08-03T08:09:37;27.20;99.90
17607;DHT22;8922;52.240;20.980;2022-08-03T08:12:05;27.50;99.90
17607;DHT22;8922;52.240;20.980;2022-08-03T08:14:34;27.80;99.90
17607;DHT22;8922;52.240;20.980;2022-08-03T08:17:01;28.00;99.90
17607;DHT22;8922;52.240;20.980;2022-08-03T08:19:28;28.20;99.90
17607;DHT22;8922;52.240;20.980;2022-08-03T08:21:54;28.30;99.90
17607;DHT22;8922;52.240;20.980;2022-08-03T08:24:21;28.50;99.90
17607;DHT22;8922;52.240;20.980;2022-08-03T08:26:48;28.60;99.90
17607;DHT22;8922;52.240;20.980;2022-08-03T08:29:15;28.70;99.90
17607;DHT22;8922;52.240;20.980;2022-08-03T08:31:43;28.80;99.70
17607;DHT22;8922;52.240;20.980;2022-08-03T08:34:09;28.90;97.80
17607;DHT22;8922;52.240;20.980;2022-08-03T08:36:36;29.00;96.70
17607;DHT22;8922;52.240;20.980;2022-08-03T08:39:03;29.20;96.40
17607;DHT22;8922;52.240;20.980;2022-08-03T08:41:30;29.30;95.30
17607;DHT22;8922;52.240;20.980;2022-08-03T08:43:59;29.40;94.20
17607;DHT22;8922;52.240;20.980;2022-08-03T08:46:26;29.50;93.40
17607;DHT22;8922;52.240;20.980;2022-08-03T08:48:56;29.70;92.50
17607;DHT22;8922;52.240;20.980;2022-08-03T08:51:27;29.90;92.00
17607;DHT22;8922;52.240;20.980;2022-08-03T08:53:56;29.90;90.90
17607;DHT22;8922;52.240;20.980;2022-08-03T08:56:27;29.90;90.90
17607;DHT22;8922;52.240;20.980;2022-08-03T08:58:58;30.00;90.30
17607;DHT22;8922;52.240;20.980;2022-08-03T09:01:25;30.00;90.30
17607;DHT22;8922;52.240;20.980;2022-08-03T09:03:52;29.90;89.70
17607;DHT22;8922;52.240;20.980;2022-08-03T09:06:21;30.10;89.60
17607;DHT22;8922;52.240;20.980;2022-08-03T09:08:48;30.40;89.30
17607;DHT22;8922;52.240;20.980;2022-08-03T09:11:15;30.50;87.40
17607;DHT22;8922;52.240;20.980;2022-08-03T09:13:42;30.60;86.80
17607;DHT22;8922;52.240;20.980;2022-08-03T09:16:13;30.60;84.80
17607;DHT22;8922;52.240;20.980;2022-08-03T09:18:40;30.40;83.90
17607;DHT22;8922;52.240;20.980;2022-08-03T09:21:16;30.30;84.20
17607;DHT22;8922;52.240;20.980;2022-08-03T09:23:46;30.40;83.40
17607;DHT22;8922;52.240;20.980;2022-08-03T09:26:19;30.30;83.40
17607;DHT22;8922;52.240;20.980;2022-08-03T09:28:53;30.30;83.40
17607;DHT22;8922;52.240;20.980;2022-08-03T09:31:29;30.30;83.50
17607;DHT22;8922;52.240;20.980;2022-08-03T09:33:57;30.20;83.30
17607;DHT22;8922;52.240;20.980;2022-08-03T09:36:39;30.10;83.30
17607;DHT22;8922;52.240;20.980;2022-08-03T09:39:08;30.00;83.90
17607;DHT22;8922;52.240;20.980;2022-08-03T09:41:37;29.90;84.70
17607;DHT22;8922;52.240;20.980;2022-08-03T09:44:04;30.00;84.60
17607;DHT22;8922;52.240;20.980;2022-08-03T09:46:31;30.30;84.20
17607;DHT22;8922;52.240;20.980;2022-08-03T09:49:09;30.60;82.20
17607;DHT22;8922;52.240;20.980;2022-08-03T09:51:36;30.80;79.80
17607;DHT22;8922;52.240;20.980;2022-08-03T09:54:03;31.00;78.50
17607;DHT22;8922;52.240;20.980;2022-08-03T09:56:42;31.20;79.20
17607;DHT22;8922;52.240;20.980;2022-08-03T09:59:10;31.40;77.40
17607;DHT22;8922;52.240;20.980;2022-08-03T10:01:37;31.60;75.80
17607;DHT22;8922;52.240;20.980;2022-08-03T10:04:10;31.70;74.60
17607;DHT22;8922;52.240;20.980;2022-08-03T10:06:38;31.80;73.40
17607;DHT22;8922;52.240;20.980;2022-08-03T10:09:07;31.90;71.90
17607;DHT22;8922;52.240;20.980;2022-08-03T10:11:34;32.00;71.40
17607;DHT22;8922;52.240;20.980;2022-08-03T10:14:04;32.10;71.30
17607;DHT22;8922;52.240;20.980;2022-08-03T10:16:33;32.40;70.60
17607;DHT22;8922;52.240;20.980;2022-08-03T10:19:02;32.60;68.80
17607;DHT22;8922;52.240;20.980;2022-08-03T10:21:32;32.70;68.70
17607;DHT22;8922;52.240;20.980;2022-08-03T10:24:01;32.80;67.10
17607;DHT22;8922;52.240;20.980;2022-08-03T10:26:30;32.90;65.90
17607;DHT22;8922;52.240;20.980;2022-08-03T10:28:59;33.00;64.70
17607;DHT22;8922;52.240;20.980;2022-08-03T10:31:34;33.00;63.20
17607;DHT22;8922;52.240;20.980;2022-08-03T10:34:08;33.00;62.50
17607;DHT22;8922;52.240;20.980;2022-08-03T10:36:37;33.00;62.10
17607;DHT22;8922;52.240;20.980;2022-08-03T10:39:06;33.00;61.50
17607;DHT22;8922;52.240;20.980;2022-08-03T10:41:37;33.10;61.50
17607;DHT22;8922;52.240;20.980;2022-08-03T10:44:08;33.20;61.50
17607;DHT22;8922;52.240;20.980;2022-08-03T10:46:38;33.40;60.20
17607;DHT22;8922;52.240;20.980;2022-08-03T10:49:06;33.60;59.50
17607;DHT22;8922;52.240;20.980;2022-08-03T10:51:33;33.70;59.10
17607;DHT22;8922;52.240;20.980;2022-08-03T10:54:01;33.50;58.30
17607;DHT22;8922;52.240;20.980;2022-08-03T10:56:38;33.20;58.00
17607;DHT22;8922;52.240;20.980;2022-08-03T10:59:56;32.80;58.40
17607;DHT22;8922;52.240;20.980;2022-08-03T11:03:02;32.70;59.60
17607;DHT22;8922;52.240;20.980;2022-08-03T11:05:32;32.60;60.30
17607;DHT22;8922;52.240;20.980;2022-08-03T11:08:27;32.70;60.60
17607;DHT22;8922;52.240;20.980;2022-08-03T11:10:57;32.70;60.80
17607;DHT22;8922;52.240;20.980;2022-08-03T11:13:25;32.90;61.20
17607;DHT22;8922;52.240;20.980;2022-08-03T11:15:57;33.20;60.50
17607;DHT22;8922;52.240;20.980;2022-08-03T11:18:25;33.20;59.50
17607;DHT22;8922;52.240;20.980;2022-08-03T11:20:54;33.20;59.30
17607;DHT22;8922;52.240;20.980;2022-08-03T11:23:39;33.20;59.50
17607;DHT22;8922;52.240;20.980;2022-08-03T11:26:16;33.20;59.50
17607;DHT22;8922;52.240;20.980;2022-08-03T11:28:44;33.50;59.80
17607;DHT22;8922;52.240;20.980;2022-08-03T11:31:43;33.70;59.80
17607;DHT22;8922;52.240;20.980;2022-08-03T11:34:14;34.00;58.70
17607;DHT22;8922;52.240;20.980;2022-08-03T11:37:18;34.00;58.30
17607;DHT22;8922;52.240;20.980;2022-08-03T11:39:47;34.20;57.90
17607;DHT22;8922;52.240;20.980;2022-08-03T11:42:41;34.30;57.80
17607;DHT22;8922;52.240;20.980;2022-08-03T11:45:12;34.40;57.70
17607;DHT22;8922;52.240;20.980;2022-08-03T11:47:40;34.50;57.40
17607;DHT22;8922;52.240;20.980;2022-08-03T11:50:09;34.50;56.30
17607;DHT22;8922;52.240;20.980;2022-08-03T11:52:40;34.40;56.50
17607;DHT22;8922;52.240;20.980;2022-08-03T11:55:16;34.40;57.00
17607;DHT22;8922;52.240;20.980;2022-08-03T11:57:45;34.30;57.10
17607;DHT22;8922;52.240;20.980;2022-08-03T12:00:23;34.20;56.60
17607;DHT22;8922;52.240;20.980;2022-08-03T12:03:02;34.30;56.50
17607;DHT22;8922;52.240;20.980;2022-08-03T12:05:41;34.30;55.80
17607;DHT22;8922;52.240;20.980;2022-08-03T12:08:10;34.20;55.70
17607;DHT22;8922;52.240;20.980;2022-08-03T12:10:37;34.10;55.50
17607;DHT22;8922;52.240;20.980;2022-08-03T12:13:06;34.10;55.70
17607;DHT22;8922;52.240;20.980;2022-08-03T12:15:35;34.00;56.00
17607;DHT22;8922;52.240;20.980;2022-08-03T12:18:11;34.00;56.20
17607;DHT22;8922;52.240;20.980;2022-08-03T12:20:40;34.10;56.40
17607;DHT22;8922;52.240;20.980;2022-08-03T12:23:08;34.30;55.80
17607;DHT22;8922;52.240;20.980;2022-08-03T12:25:35;34.30;55.10
17607;DHT22;8922;52.240;20.980;2022-08-03T12:28:16;34.10;54.80
17607;DHT22;8922;52.240;20.980;2022-08-03T12:30:45;34.00;55.60
17607;DHT22;8922;52.240;20.980;2022-08-03T12:33:21;34.00;56.20
17607;DHT22;8922;52.240;20.980;2022-08-03T12:36:04;33.90;56.30
17607;DHT22;8922;52.240;20.980;2022-08-03T12:38:31;33.80;55.50
17607;DHT22;8922;52.240;20.980;2022-08-03T12:41:04;33.80;55.80
17607;DHT22;8922;52.240;20.980;2022-08-03T12:43:31;33.80;56.50
17607;DHT22;8922;52.240;20.980;2022-08-03T12:46:12;33.60;56.00
17607;DHT22;8922;52.240;20.980;2022-08-03T12:49:13;33.30;56.40
17607;DHT22;8922;52.240;20.980;2022-08-03T12:51:57;33.00;57.20
17607;DHT22;8922;52.240;20.980;2022-08-03T12:54:25;33.20;57.30
17607;DHT22;8922;52.240;20.980;2022-08-03T12:56:57;33.20;57.00
17607;DHT22;8922;52.240;20.980;2022-08-03T12:59:24;33.20;56.90
17607;DHT22;8922;52.240;20.980;2022-08-03T13:01:52;33.00;57.30
17607;DHT22;8922;52.240;20.980;2022-08-03T13:04:25;32.90;57.90
17607;DHT22;8922;52.240;20.980;2022-08-03T13:06:57;32.70;58.20
17607;DHT22;8922;52.240;20.980;2022-08-03T13:09:24;32.70;58.50
17607;DHT22;8922;52.240;20.980;2022-08-03T13:12:04;32.70;58.50
17607;DHT22;8922;52.240;20.980;2022-08-03T13:14:31;32.90;58.30
17607;DHT22;8922;52.240;20.980;2022-08-03T13:16:58;33.10;58.00
17607;DHT22;8922;52.240;20.980;2022-08-03T13:19:25;33.20;57.80
17607;DHT22;8922;52.240;20.980;2022-08-03T13:21:52;33.30;57.70
17607;DHT22;8922;52.240;20.980;2022-08-03T13:24:20;33.40;57.70
17607;DHT22;8922;52.240;20.980;2022-08-03T13:26:46;33.50;57.40
17607;DHT22;8922;52.240;20.980;2022-08-03T13:29:13;33.80;57.50
17607;DHT22;8922;52.240;20.980;2022-08-03T13:31:40;34.00;56.90
17607;DHT22;8922;52.240;20.980;2022-08-03T13:34:07;34.20;56.60
17607;DHT22;8922;52.240;20.980;2022-08-03T13:36:34;34.30;56.10
17607;DHT22;8922;52.240;20.980;2022-08-03T13:39:01;34.20;56.20
17607;DHT22;8922;52.240;20.980;2022-08-03T13:41:29;34.00;56.20
17607;DHT22;8922;52.240;20.980;2022-08-03T13:43:56;33.80;56.20
17607;DHT22;8922;52.240;20.980;2022-08-03T13:46:23;33.40;56.00
17607;DHT22;8922;52.240;20.980;2022-08-03T13:48:51;33.10;56.40
17607;DHT22;8922;52.240;20.980;2022-08-03T13:51:18;32.90;57.10
17607;DHT22;8922;52.240;20.980;2022-08-03T13:53:44;32.70;57.10
17607;DHT22;8922;52.240;20.980;2022-08-03T13:56:11;32.80;57.80
17607;DHT22;8922;52.240;20.980;2022-08-03T13:58:39;32.90;58.50
17607;DHT22;8922;52.240;20.980;2022-08-03T14:01:06;33.00;58.60
17607;DHT22;8922;52.240;20.980;2022-08-03T14:03:33;33.10;57.80
17607;DHT22;8922;52.240;20.980;2022-08-03T14:05:59;33.20;57.60
17607;DHT22;8922;52.240;20.980;2022-08-03T14:08:26;33.10;57.30
17607;DHT22;8922;52.240;20.980;2022-08-03T14:10:53;33.10;57.50
17607;DHT22;8922;52.240;20.980;2022-08-03T14:13:20;33.00;57.50
17607;DHT22;8922;52.240;20.980;2022-08-03T14:15:48;33.00;57.70
17607;DHT22;8922;52.240;20.980;2022-08-03T14:18:17;33.00;58.00
17607;DHT22;8922;52.240;20.980;2022-08-03T14:20:44;33.00;58.00
17607;DHT22;8922;52.240;20.980;2022-08-03T14:23:10;33.00;57.40
17607;DHT22;8922;52.240;20.980;2022-08-03T14:25:38;33.00;57.40
17607;DHT22;8922;52.240;20.980;2022-08-03T14:28:05;32.80;57.80
17607;DHT22;8922;52.240;20.980;2022-08-03T14:30:32;32.80;58.50
17607;DHT22;8922;52.240;20.980;2022-08-03T14:33:01;32.80;58.30
17607;DHT22;8922;52.240;20.980;2022-08-03T14:35:27;32.80;57.80
17607;DHT22;8922;52.240;20.980;2022-08-03T14:37:54;32.70;58.30
17607;DHT22;8922;52.240;20.980;2022-08-03T14:40:21;32.80;58.20
17607;DHT22;8922;52.240;20.980;2022-08-03T14:42:48;32.80;57.90
17607;DHT22;8922;52.240;20.980;2022-08-03T14:45:14;32.90;57.60
17607;DHT22;8922;52.240;20.980;2022-08-03T14:47:41;32.90;57.50
17607;DHT22;8922;52.240;20.980;2022-08-03T14:50:10;32.90;57.10
17607;DHT22;8922;52.240;20.980;2022-08-03T14:52:36;32.80;57.00
17607;DHT22;8922;52.240;20.980;2022-08-03T14:55:04;32.80;57.10
17607;DHT22;8922;52.240;20.980;2022-08-03T14:57:30;32.70;57.00
17607;DHT22;8922;52.240;20.980;2022-08-03T14:59:57;32.50;57.00
17607;DHT22;8922;52.240;20.980;2022-08-03T15:02:24;32.40;56.80
17607;DHT22;8922;52.240;20.980;2022-08-03T15:04:52;32.30;57.30
17607;DHT22;8922;52.240;20.980;2022-08-03T15:07:20;32.10;57.40
17607;DHT22;8922;52.240;20.980;2022-08-03T15:09:47;32.00;57.30
17607;DHT22;8922;52.240;20.980;2022-08-03T15:12:14;31.90;57.30
17607;DHT22;8922;52.240;20.980;2022-08-03T15:14:40;31.70;58.00
17607;DHT22;8922;52.240;20.980;2022-08-03T15:17:07;31.60;58.50
17607;DHT22;8922;52.240;20.980;2022-08-03T15:19:35;31.60;59.10
17607;DHT22;8922;52.240;20.980;2022-08-03T15:22:01;31.40;59.30
17607;DHT22;8922;52.240;20.980;2022-08-03T15:24:30;31.40;59.30
17607;DHT22;8922;52.240;20.980;2022-08-03T15:26:56;31.40;59.40
17607;DHT22;8922;52.240;20.980;2022-08-03T15:29:23;31.40;59.30
17607;DHT22;8922;52.240;20.980;2022-08-03T15:31:50;31.40;59.30
17607;DHT22;8922;52.240;20.980;2022-08-03T15:34:17;31.40;59.30
17607;DHT22;8922;52.240;20.980;2022-08-03T15:36:44;31.40;59.30
17607;DHT22;8922;52.240;20.980;2022-08-03T15:39:10;31.40;59.40
17607;DHT22;8922;52.240;20.980;2022-08-03T15:41:38;31.30;59.50
17607;DHT22;8922;52.240;20.980;2022-08-03T15:44:05;31.20;59.90